Time;durP1;ratioP1;P1;durP2;ratioP2;P2;SDS_P1;SDS_P2;PMS_P1;PMS_P2;Temp;Humidity;BMP_temperature;BMP_pressure;BME280_temperature;BME280_humidity;BME280_pressure;Samples;Min_cycle;Max_cycle;Signal;HPM_P1;HPM_P2
2021/08/19 04:02:29;;;;;;;4.20;2.40;;;14.60;96.30;;;;;;5000015;23;20548;-78
2021/08/19 04:04:54;;;;;;;2.00;1.80;;;14.60;96.30;;;;;;4954136;28;20403;-78
2021/08/19 04:07:20;;;;;;;2.90;2.03;;;14.60;96.30;;;;;;4952739;29;20225;-78
2021/08/19 04:09:45;;;;;;;3.57;2.30;;;14.60;96.30;;;;;;4954145;28;20183;-78
2021/08/19 04:12:10;;;;;;;2.90;1.70;;;14.70;96.30;;;;;;4953298;28;20214;-78
2021/08/19 04:14:36;;;;;;;2.03;1.63;;;14.70;96.30;;;;;;4954574;28;20553;-78
2021/08/19 04:17:02;;;;;;;2.80;1.70;;;14.70;96.30;;;;;;4954126;28;20207;-78
2021/08/19 04:19:27;;;;;;;1.90;1.80;;;14.70;96.30;;;;;;4954593;28;20186;-78
2021/08/19 04:21:53;;;;;;;1.93;1.73;;;14.60;96.30;;;;;;4953781;28;20187;-80
2021/08/19 04:24:19;;;;;;;1.90;1.57;;;14.60;96.30;;;;;;4954109;28;20639;-78
2021/08/19 04:26:44;;;;;;;2.80;2.00;;;14.60;96.30;;;;;;4968833;28;20185;-77
2021/08/19 04:29:10;;;;;;;1.60;1.50;;;14.60;96.30;;;;;;4973111;28;21006;-78
2021/08/19 04:31:36;;;;;;;2.07;1.87;;;14.60;96.30;;;;;;4971477;28;20760;-79
2021/08/19 04:34:03;;;;;;;2.00;1.80;;;14.60;96.30;;;;;;4971829;28;20216;-77
2021/08/19 04:36:32;;;;;;;5.60;1.70;;;14.60;96.30;;;;;;4971589;28;20178;-78
2021/08/19 04:38:58;;;;;;;5.70;2.03;;;14.70;96.30;;;;;;4971701;28;20459;-81
2021/08/19 04:41:23;;;;;;;2.10;1.87;;;14.60;96.30;;;;;;4972652;28;20464;-78
2021/08/19 04:43:49;;;;;;;4.47;2.13;;;14.70;96.30;;;;;;4972361;28;20186;-78
2021/08/19 04:46:14;;;;;;;2.20;2.00;;;14.70;96.30;;;;;;4976714;28;20178;-78
2021/08/19 04:48:40;;;;;;;2.70;2.20;;;14.70;96.30;;;;;;4976637;28;20178;-80
2021/08/19 04:51:05;;;;;;;4.27;2.30;;;14.70;96.30;;;;;;4976450;28;20217;-78
2021/08/19 04:53:31;;;;;;;2.50;1.80;;;14.70;96.30;;;;;;4974871;28;20217;-77
2021/08/19 04:55:56;;;;;;;1.83;1.73;;;14.80;96.30;;;;;;4975244;28;20669;-79
2021/08/19 04:58:22;;;;;;;2.23;1.73;;;14.80;96.30;;;;;;4976522;28;20253;-78
2021/08/19 05:00:47;;;;;;;3.13;2.07;;;14.80;96.30;;;;;;4976340;28;20494;-78
2021/08/19 05:03:13;;;;;;;9.40;1.87;;;14.80;96.30;;;;;;4976092;28;20174;-77
2021/08/19 05:05:39;;;;;;;2.90;1.83;;;14.80;96.30;;;;;;4976397;28;20577;-78
2021/08/19 05:08:04;;;;;;;2.60;2.40;;;14.80;96.30;;;;;;4976362;28;20209;-77
2021/08/19 05:10:30;;;;;;;2.57;1.90;;;14.80;96.30;;;;;;4974988;28;20289;-77
2021/08/19 05:12:55;;;;;;;2.60;2.40;;;14.80;96.30;;;;;;4976319;28;20174;-78
2021/08/19 05:15:21;;;;;;;1.93;1.73;;;14.80;96.30;;;;;;4976190;28;20286;-78
2021/08/19 05:17:47;;;;;;;2.87;2.10;;;14.90;96.30;;;;;;4976133;28;20205;-78
2021/08/19 05:20:13;;;;;;;2.13;1.93;;;14.90;96.30;;;;;;4976009;28;20171;-78
2021/08/19 05:22:38;;;;;;;6.03;2.30;;;14.90;96.30;;;;;;4975432;28;20654;-78
2021/08/19 05:25:05;;;;;;;4.43;2.20;;;14.90;96.30;;;;;;4972530;28;20470;-78
2021/08/19 05:27:30;;;;;;;2.57;2.37;;;15.00;96.30;;;;;;4956602;28;20269;-77
2021/08/19 05:29:56;;;;;;;8.77;1.83;;;15.00;96.30;;;;;;4956720;28;20513;-78
2021/08/19 05:32:21;;;;;;;3.30;2.50;;;15.10;96.30;;;;;;4955928;28;20247;-79
2021/08/19 05:34:47;;;;;;;2.10;1.90;;;15.10;96.30;;;;;;4956896;28;20610;-78
2021/08/19 05:37:12;;;;;;;2.70;2.13;;;15.10;96.30;;;;;;4955182;29;20236;-78
2021/08/19 05:39:37;;;;;;;3.50;1.90;;;15.20;96.30;;;;;;4956433;29;20163;-78
2021/08/19 05:42:03;;;;;;;1.73;1.60;;;15.20;96.30;;;;;;4955797;28;20186;-78
2021/08/19 05:44:29;;;;;;;2.40;2.20;;;15.30;96.30;;;;;;4955084;28;20225;-78
2021/08/19 05:46:54;;;;;;;2.97;1.90;;;15.30;96.30;;;;;;4956242;28;20179;-78
2021/08/19 05:49:20;;;;;;;3.00;2.20;;;15.40;96.30;;;;;;4954961;29;20380;-79
2021/08/19 05:51:45;;;;;;;3.73;1.90;;;15.40;96.30;;;;;;4955566;28;20202;-78
2021/08/19 05:54:10;;;;;;;2.53;1.50;;;15.40;96.30;;;;;;4954868;28;20658;-78
2021/08/19 05:56:36;;;;;;;2.60;2.00;;;15.40;96.30;;;;;;4953670;28;20206;-79
2021/08/19 05:59:01;;;;;;;2.37;2.17;;;15.30;96.30;;;;;;4954852;29;20185;-78
2021/08/19 06:01:27;;;;;;;1.60;1.50;;;15.30;96.30;;;;;;4955388;29;20249;-78
2021/08/19 06:03:52;;;;;;;2.00;1.80;;;15.40;96.30;;;;;;4956001;28;20217;-78
2021/08/19 06:06:19;;;;;;;4.80;2.23;;;15.40;96.30;;;;;;4956117;28;20565;-78
2021/08/19 06:08:44;;;;;;;2.97;2.20;;;15.40;96.30;;;;;;4956014;28;20171;-78
2021/08/19 06:11:09;;;;;;;2.43;1.97;;;15.40;96.30;;;;;;4954786;29;20430;-78
2021/08/19 06:13:35;;;;;;;2.80;1.87;;;15.40;96.30;;;;;;4955507;29;20607;-78
2021/08/19 06:16:00;;;;;;;3.10;1.90;;;15.50;96.30;;;;;;4955886;28;20270;-79
2021/08/19 06:18:26;;;;;;;1.97;1.60;;;15.50;96.30;;;;;;4955649;28;20542;-78
2021/08/19 06:20:51;;;;;;;3.23;1.90;;;15.50;96.30;;;;;;4955672;28;20206;-78
2021/08/19 06:23:17;;;;;;;2.07;1.60;;;15.60;96.30;;;;;;4955079;28;20202;-78
2021/08/19 06:25:43;;;;;;;2.27;2.07;;;15.60;96.30;;;;;;4963725;28;20189;-78
2021/08/19 06:28:09;;;;;;;1.90;1.80;;;15.70;96.30;;;;;;4974902;28;20185;-78
2021/08/19 06:30:35;;;;;;;4.17;2.00;;;15.70;96.30;;;;;;4975219;28;20194;-78
2021/08/19 06:33:01;;;;;;;2.20;2.00;;;15.90;96.30;;;;;;4974261;28;20504;-78
2021/08/19 06:35:27;;;;;;;4.27;1.97;;;15.90;96.30;;;;;;4975124;28;20421;-78
2021/08/19 06:37:52;;;;;;;2.17;1.97;;;16.00;96.30;;;;;;4974980;28;20461;-78
2021/08/19 06:40:18;;;;;;;2.27;1.60;;;16.00;96.30;;;;;;4975112;28;20776;-78
2021/08/19 06:42:43;;;;;;;1.80;1.70;;;16.00;96.30;;;;;;4974227;28;20540;-79
2021/08/19 06:45:10;;;;;;;5.43;1.80;;;16.00;96.30;;;;;;4975149;28;20175;-78
2021/08/19 06:47:35;;;;;;;3.07;1.90;;;15.90;96.30;;;;;;4974424;28;20546;-79
2021/08/19 06:50:01;;;;;;;3.23;1.83;;;16.10;96.30;;;;;;4974669;28;20414;-78
2021/08/19 06:52:26;;;;;;;4.47;1.60;;;16.10;96.30;;;;;;4972972;28;20194;-78
2021/08/19 06:54:52;;;;;;;2.00;1.80;;;16.10;96.30;;;;;;4974438;28;20550;-78
2021/08/19 06:57:18;;;;;;;4.03;1.87;;;16.30;96.30;;;;;;4974372;28;20202;-78
2021/08/19 06:59:43;;;;;;;3.67;2.00;;;16.40;96.30;;;;;;4974687;28;20812;-78
2021/08/19 07:02:09;;;;;;;2.93;2.00;;;16.40;96.30;;;;;;4973568;28;20252;-78
2021/08/19 07:04:34;;;;;;;2.57;1.80;;;16.40;96.30;;;;;;4974282;28;20174;-79
2021/08/19 07:07:00;;;;;;;2.33;1.63;;;16.50;96.30;;;;;;4972549;28;20185;-78
2021/08/19 07:09:25;;;;;;;2.47;2.00;;;16.70;96.30;;;;;;4974216;28;20209;-79
2021/08/19 07:11:51;;;;;;;3.30;1.70;;;17.00;96.30;;;;;;4973460;28;20677;-79
2021/08/19 07:14:16;;;;;;;3.47;2.00;;;17.30;96.30;;;;;;4974139;28;20595;-79
2021/08/19 07:16:42;;;;;;;6.03;2.33;;;17.30;96.30;;;;;;4973967;28;20666;-79
2021/08/19 07:19:08;;;;;;;2.90;1.77;;;17.60;96.30;;;;;;4974178;28;20185;-79
2021/08/19 07:21:33;;;;;;;1.63;1.53;;;17.80;96.30;;;;;;4973327;28;20229;-79
2021/08/19 07:23:59;;;;;;;2.20;2.00;;;18.10;96.30;;;;;;4973990;28;20178;-78
2021/08/19 07:26:24;;;;;;;3.00;1.77;;;17.90;96.30;;;;;;4961028;28;20182;-80
2021/08/19 07:28:53;;;;;;;2.60;2.23;;;17.80;96.30;;;;;;4955177;28;20187;-79
2021/08/19 07:31:19;;;;;;;1.93;1.70;;;17.70;96.30;;;;;;4954257;28;20187;-81
2021/08/19 07:33:45;;;;;;;3.07;2.40;;;17.70;96.30;;;;;;4954220;28;20422;-79
2021/08/19 07:36:11;;;;;;;2.10;1.90;;;18.00;96.30;;;;;;4953201;29;20218;-79
2021/08/19 07:38:36;;;;;;;3.00;2.00;;;18.40;96.30;;;;;;4954377;29;20198;-79
2021/08/19 07:41:02;;;;;;;5.07;1.67;;;19.10;96.30;;;;;;4954288;28;21013;-81
2021/08/19 07:43:28;;;;;;;2.50;1.93;;;19.30;96.30;;;;;;4953995;28;20182;-79
2021/08/19 07:45:53;;;;;;;4.50;1.33;;;19.60;96.30;;;;;;4954449;28;20182;-79
2021/08/19 07:48:19;;;;;;;3.50;1.77;;;20.00;96.30;;;;;;4954358;28;20186;-80
2021/08/19 07:50:44;;;;;;;2.00;1.60;;;20.40;96.30;;;;;;4954526;28;20191;-80
2021/08/19 07:53:11;;;;;;;2.87;1.83;;;21.40;96.30;;;;;;4953773;28;20171;-81
2021/08/19 07:55:37;;;;;;;1.50;1.27;;;21.40;96.30;;;;;;4954254;28;20175;-80
2021/08/19 07:58:02;;;;;;;1.77;1.43;;;21.20;96.30;;;;;;4954549;28;20544;-79
2021/08/19 08:00:32;;;;;;;2.93;1.60;;;21.20;96.30;;;;;;4954005;28;20175;-80
2021/08/19 08:02:59;;;;;;;3.53;1.50;;;20.70;96.30;;;;;;4953538;29;20167;-81
2021/08/19 08:05:26;;;;;;;1.77;1.53;;;20.30;96.30;;;;;;4954103;28;20438;-80
2021/08/19 08:07:52;;;;;;;2.20;1.53;;;19.50;96.30;;;;;;4954149;28;20833;-80
2021/08/19 08:10:19;;;;;;;1.60;1.50;;;19.40;96.30;;;;;;4954028;29;20869;-79
2021/08/19 08:12:45;;;;;;;2.33;1.33;;;19.40;96.30;;;;;;4953413;28;20438;-80
2021/08/19 08:15:11;;;;;;;1.57;1.47;;;19.20;96.30;;;;;;4953907;28;20922;-80
2021/08/19 08:17:38;;;;;;;2.70;1.60;;;18.60;96.30;;;;;;4954024;28;20253;-81
2021/08/19 08:20:06;;;;;;;5.23;1.70;;;18.30;96.30;;;;;;4956789;28;20926;-79
2021/08/19 08:22:31;;;;;;;2.27;1.77;;;18.10;96.30;;;;;;4956021;29;20438;-79
2021/08/19 08:24:57;;;;;;;2.73;1.90;;;17.90;96.30;;;;;;4959835;28;20431;-79
2021/08/19 08:27:22;;;;;;;3.33;1.80;;;17.80;96.30;;;;;;4978134;28;20257;-79
2021/08/19 08:29:48;;;;;;;1.83;1.67;;;17.80;96.30;;;;;;4978486;28;20520;-80
2021/08/19 08:32:13;;;;;;;6.10;1.47;;;17.80;96.30;;;;;;4976465;28;20209;-79
2021/08/19 08:34:40;;;;;;;1.60;1.50;;;18.00;96.30;;;;;;4975708;28;20182;-80
2021/08/19 08:37:07;;;;;;;2.17;1.83;;;17.90;96.30;;;;;;4977056;28;20197;-80
2021/08/19 08:39:36;;;;;;;2.13;1.73;;;17.80;96.30;;;;;;4976984;28;20424;-80
2021/08/19 08:42:06;;;;;;;1.60;1.50;;;17.90;96.30;;;;;;4976174;28;20456;-80
2021/08/19 08:44:33;;;;;;;2.00;1.80;;;18.00;96.30;;;;;;4976885;28;20414;-80
2021/08/19 08:47:00;;;;;;;2.50;2.00;;;17.90;96.30;;;;;;4976859;28;20419;-80
2021/08/19 08:49:27;;;;;;;2.33;2.13;;;17.80;96.30;;;;;;4976776;28;20449;-78
2021/08/19 08:51:57;;;;;;;3.70;2.10;;;18.00;96.30;;;;;;4976142;28;20433;-80
2021/08/19 08:54:25;;;;;;;2.30;2.20;;;18.00;96.30;;;;;;4976936;28;20413;-80
2021/08/19 08:56:50;;;;;;;2.23;2.00;;;18.10;96.30;;;;;;4976399;28;20532;-80
2021/08/19 08:59:16;;;;;;;2.53;2.33;;;18.30;96.30;;;;;;4976611;28;20981;-80
2021/08/19 09:01:41;;;;;;;3.20;2.30;;;18.40;96.30;;;;;;4976102;28;20214;-80
2021/08/19 09:04:07;;;;;;;4.00;2.20;;;18.50;96.30;;;;;;4976791;28;20181;-80
2021/08/19 09:06:37;;;;;;;2.53;1.80;;;18.70;96.30;;;;;;4976469;28;20202;-80
2021/08/19 09:09:17;;;;;;;2.13;1.93;;;18.90;96.30;;;;;;4976379;28;20174;-79
2021/08/19 09:11:47;;;;;;;2.20;1.70;;;19.00;96.30;;;;;;4975762;28;21109;-79
2021/08/19 09:14:18;;;;;;;2.07;1.77;;;18.90;96.30;;;;;;4976333;28;20416;-80
2021/08/19 09:16:47;;;;;;;5.13;1.97;;;19.20;96.30;;;;;;4976172;28;20440;-80
2021/08/19 09:19:14;;;;;;;2.80;1.50;;;19.50;96.30;;;;;;4976268;28;20913;-81
2021/08/19 09:22:13;;;;;;;2.70;2.00;;;19.70;96.30;;;;;;4975544;28;20426;-80
2021/08/19 09:24:38;;;;;;;2.80;1.90;;;19.70;96.30;;;;;;4972467;28;20429;-80
2021/08/19 09:27:13;;;;;;;3.37;1.80;;;19.60;96.30;;;;;;4957178;28;20445;-80
2021/08/19 09:29:39;;;;;;;2.50;1.70;;;19.20;96.30;;;;;;4957988;28;20220;-80
2021/08/19 09:32:18;;;;;;;3.10;1.77;;;19.40;96.30;;;;;;4956038;28;20446;-80
2021/08/19 09:34:49;;;;;;;1.50;1.40;;;19.10;96.30;;;;;;4956722;28;20426;-80
2021/08/19 09:37:17;;;;;;;1.80;1.70;;;18.90;96.30;;;;;;4956636;28;20981;-80
2021/08/19 09:39:48;;;;;;;2.13;1.57;;;19.00;96.30;;;;;;4978401;28;20417;-81
2021/08/19 09:42:15;;;;;;;2.27;1.53;;;19.00;96.30;;;;;;4980967;28;20477;-83
2021/08/19 09:44:46;;;;;;;1.70;1.40;;;18.60;96.30;;;;;;4962666;28;20489;-79
2021/08/19 09:47:32;;;;;;;1.87;1.77;;;18.60;96.30;;;;;;4956508;28;20421;-81
2021/08/19 09:50:14;;;;;;;1.80;1.60;;;18.60;96.30;;;;;;4956502;28;20411;-80
2021/08/19 09:52:42;;;;;;;2.90;1.80;;;18.50;96.30;;;;;;4956044;28;20458;-80
2021/08/19 09:55:31;;;;;;;3.23;1.60;;;18.40;96.30;;;;;;4956228;28;20910;-80
2021/08/19 09:57:58;;;;;;;3.27;1.80;;;17.80;96.30;;;;;;4956293;29;20498;-79
2021/08/19 10:00:32;;;;;;;1.80;1.70;;;17.80;96.30;;;;;;4955967;29;20418;-80
2021/08/19 10:02:58;;;;;;;2.57;1.80;;;18.10;96.30;;;;;;4955996;28;20450;-79
2021/08/19 10:05:25;;;;;;;3.97;1.93;;;18.30;96.30;;;;;;4954931;29;20437;-79
2021/08/19 10:07:50;;;;;;;1.60;1.50;;;18.50;96.30;;;;;;4954700;29;20427;-79
2021/08/19 10:10:16;;;;;;;3.50;1.60;;;18.80;96.30;;;;;;4954639;29;20433;-80
2021/08/19 10:12:46;;;;;;;3.20;2.10;;;19.30;96.30;;;;;;4955413;29;20214;-78
2021/08/19 10:15:13;;;;;;;2.70;2.00;;;19.20;96.30;;;;;;4958779;28;20290;-79
2021/08/19 10:17:45;;;;;;;3.70;2.30;;;19.20;96.30;;;;;;4963826;29;20970;-78
2021/08/19 10:28:11;;;;;;;4.37;2.10;;;18.80;96.30;;;;;;5169237;23;20499;-78
2021/08/19 10:30:55;;;;;;;1.93;1.80;;;18.60;96.30;;;;;;4965796;28;20434;-79
2021/08/19 10:33:36;;;;;;;2.90;1.90;;;18.70;96.30;;;;;;4968425;29;20418;-79
2021/08/19 10:36:24;;;;;;;2.50;2.30;;;19.00;96.30;;;;;;4969794;28;20418;-79
2021/08/19 10:38:50;;;;;;;2.33;1.60;;;19.00;96.30;;;;;;4968240;29;20474;-79
2021/08/19 10:41:30;;;;;;;3.10;2.50;;;19.10;96.30;;;;;;4968294;28;20464;-79
2021/08/19 10:44:10;;;;;;;2.30;2.10;;;19.20;96.30;;;;;;4971146;28;20538;-79
2021/08/19 10:46:40;;;;;;;8.07;2.33;;;19.40;96.30;;;;;;4969120;29;20461;-79
2021/08/19 10:49:06;;;;;;;3.03;1.77;;;19.50;96.30;;;;;;4968646;28;20470;-79
2021/08/19 10:51:32;;;;;;;3.57;2.30;;;19.80;96.30;;;;;;4965929;29;20439;-79
2021/08/19 10:53:57;;;;;;;1.90;1.50;;;20.50;96.30;;;;;;4966687;29;20183;-78
2021/08/19 10:56:44;;;;;;;2.80;1.60;;;20.50;96.30;;;;;;4966699;28;20186;-79
2021/08/19 10:59:32;;;;;;;2.87;1.80;;;20.90;96.30;;;;;;4968376;29;20189;-79
2021/08/19 11:02:00;;;;;;;2.33;2.10;;;21.00;96.30;;;;;;4965493;29;20434;-79
2021/08/19 11:04:47;;;;;;;2.30;2.00;;;21.00;96.30;;;;;;4964757;28;20406;-79
2021/08/19 11:07:52;;;;;;;6.07;1.83;;;20.40;96.30;;;;;;4962760;29;20422;-78
2021/08/19 11:10:20;;;;;;;1.40;1.30;;;20.40;96.30;;;;;;4962476;29;20425;-79
2021/08/19 11:12:46;;;;;;;3.67;1.53;;;20.50;96.30;;;;;;4962401;29;20450;-79
2021/08/19 11:15:12;;;;;;;1.40;1.10;;;20.30;96.30;;;;;;4964025;28;20415;-78
2021/08/19 11:17:38;;;;;;;4.33;1.53;;;20.50;96.30;;;;;;4964263;28;20561;-79
2021/08/19 11:20:23;;;;;;;5.10;1.20;;;20.80;96.30;;;;;;4955244;29;20186;-79
2021/08/19 11:23:18;;;;;;;1.90;1.50;;;21.30;96.30;;;;;;4954290;29;20791;-79
2021/08/19 11:25:46;;;;;;;2.23;1.90;;;21.30;96.30;;;;;;4951402;28;20446;-79
2021/08/19 11:28:19;;;;;;;2.83;1.30;;;21.10;96.30;;;;;;4955747;28;20434;-79
2021/08/19 11:30:50;;;;;;;2.63;1.33;;;21.20;96.30;;;;;;4954678;28;20458;-79
2021/08/19 11:33:19;;;;;;;1.33;1.00;;;21.00;96.30;;;;;;4956743;28;20418;-79
2021/08/19 11:35:47;;;;;;;2.27;1.30;;;20.90;96.30;;;;;;4954923;28;20422;-79
2021/08/19 11:38:16;;;;;;;1.70;1.47;;;20.70;96.30;;;;;;4954433;28;20994;-79
2021/08/19 11:40:44;;;;;;;1.73;1.20;;;20.70;96.30;;;;;;4954885;28;20442;-79
2021/08/19 11:43:28;;;;;;;2.63;1.47;;;21.00;96.30;;;;;;4954114;28;20425;-79
2021/08/19 11:46:13;;;;;;;2.17;1.50;;;20.90;96.30;;;;;;4954755;28;20407;-79
2021/08/19 11:48:53;;;;;;;1.50;1.30;;;20.90;96.30;;;;;;4954569;28;20411;-79
2021/08/19 11:51:20;;;;;;;1.70;1.40;;;20.70;96.30;;;;;;4954555;28;20434;-79
2021/08/19 11:53:53;;;;;;;1.40;1.30;;;20.50;96.30;;;;;;4953885;28;20501;-79
2021/08/19 11:56:19;;;;;;;4.70;1.50;;;20.40;96.30;;;;;;4954489;28;20419;-79
2021/08/19 11:58:45;;;;;;;1.40;1.13;;;20.30;96.30;;;;;;4953098;28;20476;-79
2021/08/19 12:01:11;;;;;;;1.20;1.10;;;20.60;96.30;;;;;;4954184;28;20663;-79
2021/08/19 12:03:45;;;;;;;1.40;1.30;;;20.50;96.30;;;;;;4954241;28;20171;-79
2021/08/19 12:06:18;;;;;;;5.53;1.30;;;20.20;96.30;;;;;;4954278;28;20829;-79
2021/08/19 12:08:57;;;;;;;2.33;1.57;;;20.30;96.30;;;;;;4953182;28;20870;-79
2021/08/19 12:11:28;;;;;;;1.10;1.00;;;20.40;96.30;;;;;;4954839;28;20433;-79
2021/08/19 12:13:55;;;;;;;1.90;1.30;;;20.40;96.30;;;;;;4954885;28;20417;-79
2021/08/19 12:16:23;;;;;;;2.03;1.40;;;20.40;96.30;;;;;;4954622;28;20419;-79
2021/08/19 12:19:09;;;;;;;1.90;1.47;;;20.30;96.30;;;;;;4954654;28;20463;-79
2021/08/19 12:21:37;;;;;;;4.13;1.40;;;20.00;96.30;;;;;;4952479;28;20439;-79
2021/08/19 12:24:12;;;;;;;3.93;1.70;;;20.10;96.30;;;;;;4954919;28;20442;-79
2021/08/19 12:26:38;;;;;;;1.20;1.03;;;20.40;96.30;;;;;;4954499;28;20434;-79
2021/08/19 12:29:04;;;;;;;3.47;1.57;;;20.90;96.30;;;;;;4954811;28;20497;-79
2021/08/19 12:31:49;;;;;;;2.00;1.27;;;20.90;96.30;;;;;;4955373;28;20907;-79
2021/08/19 12:34:16;;;;;;;1.63;1.53;;;20.70;96.30;;;;;;4958684;28;20167;-79
2021/08/19 12:36:42;;;;;;;1.73;1.60;;;20.60;96.30;;;;;;4954233;28;20410;-79
2021/08/19 12:39:25;;;;;;;1.87;1.50;;;20.30;96.30;;;;;;4954605;28;20919;-79
2021/08/19 12:42:09;;;;;;;4.43;1.63;;;20.20;96.30;;;;;;4953662;28;20229;-79
2021/08/19 12:44:36;;;;;;;3.00;1.30;;;20.30;96.30;;;;;;4954139;28;20494;-79
2021/08/19 12:47:03;;;;;;;3.90;1.50;;;20.50;96.30;;;;;;4954052;28;20458;-79
2021/08/19 12:49:33;;;;;;;2.13;1.33;;;20.80;96.30;;;;;;4954014;28;20469;-79
2021/08/19 12:52:15;;;;;;;5.03;1.83;;;21.10;96.30;;;;;;4953193;28;20935;-79
2021/08/19 12:54:54;;;;;;;2.20;1.43;;;21.50;96.30;;;;;;4953002;28;20414;-79
2021/08/19 12:57:31;;;;;;;1.70;1.60;;;21.50;96.30;;;;;;4953977;28;20461;-79
2021/08/19 12:59:58;;;;;;;1.70;1.50;;;21.30;96.30;;;;;;4953814;28;20422;-79
2021/08/19 13:02:25;;;;;;;1.40;1.27;;;20.90;96.30;;;;;;4953186;28;20434;-79
2021/08/19 13:04:51;;;;;;;3.17;1.43;;;20.40;96.30;;;;;;4954364;28;20410;-79
2021/08/19 13:07:16;;;;;;;2.07;1.67;;;20.30;96.30;;;;;;4957507;28;20425;-79
2021/08/19 13:09:42;;;;;;;1.80;1.57;;;20.00;96.30;;;;;;4955953;28;20241;-79
2021/08/19 13:12:07;;;;;;;3.17;1.60;;;19.80;96.30;;;;;;4956519;28;20289;-79
2021/08/19 13:14:33;;;;;;;1.87;1.30;;;19.80;96.30;;;;;;4958323;28;20240;-79
2021/08/19 13:16:58;;;;;;;1.83;1.67;;;19.70;96.30;;;;;;4958048;28;20678;-79
2021/08/19 13:19:24;;;;;;;6.03;1.50;;;19.70;96.30;;;;;;4957887;28;20519;-79
2021/08/19 13:21:49;;;;;;;2.47;1.30;;;19.70;96.30;;;;;;4957268;28;20718;-79
2021/08/19 13:24:15;;;;;;;2.90;1.40;;;19.90;96.30;;;;;;4957973;28;20179;-79
2021/08/19 13:26:40;;;;;;;3.10;1.60;;;20.00;96.30;;;;;;4957769;28;20195;-79
2021/08/19 13:29:05;;;;;;;1.70;1.60;;;20.20;96.30;;;;;;4957762;28;20642;-79
2021/08/19 13:31:31;;;;;;;2.20;1.60;;;20.20;96.30;;;;;;4957026;28;20235;-79
2021/08/19 13:33:56;;;;;;;5.40;1.67;;;19.90;96.30;;;;;;4956447;28;20179;-79
2021/08/19 13:36:22;;;;;;;1.80;1.47;;;19.70;96.30;;;;;;4960316;28;20171;-79
2021/08/19 13:38:47;;;;;;;2.20;1.87;;;19.60;96.30;;;;;;4957582;28;20213;-79
2021/08/19 13:41:13;;;;;;;2.50;1.67;;;19.40;96.30;;;;;;4957007;28;20206;-79
2021/08/19 13:43:38;;;;;;;4.03;1.60;;;19.30;96.30;;;;;;4957396;28;20171;-79
2021/08/19 13:46:05;;;;;;;4.07;1.70;;;19.20;96.30;;;;;;4957119;28;20182;-79
2021/08/19 13:48:31;;;;;;;3.40;1.83;;;19.00;96.30;;;;;;4956091;28;20556;-79
2021/08/19 13:50:56;;;;;;;3.10;1.87;;;18.80;96.30;;;;;;4957107;28;20434;-79
2021/08/19 13:53:22;;;;;;;2.10;1.60;;;18.80;96.30;;;;;;4956719;28;20175;-79
2021/08/19 13:55:47;;;;;;;4.70;1.63;;;18.90;96.30;;;;;;4957325;28;20187;-79
2021/08/19 13:58:13;;;;;;;1.97;1.80;;;18.80;96.30;;;;;;4957105;28;20218;-79
2021/08/19 14:00:38;;;;;;;3.47;1.70;;;18.60;96.30;;;;;;4957477;28;20194;-79
2021/08/19 14:03:03;;;;;;;1.70;1.60;;;18.50;96.30;;;;;;4956014;28;20183;-79
2021/08/19 14:05:29;;;;;;;3.33;1.77;;;18.50;96.30;;;;;;4956830;28;20175;-79
2021/08/19 14:07:55;;;;;;;1.90;1.73;;;18.50;96.30;;;;;;4956768;28;20202;-79
2021/08/19 14:10:21;;;;;;;4.57;2.50;;;18.40;96.30;;;;;;4956497;28;20179;-79
2021/08/19 14:12:47;;;;;;;3.37;2.70;;;18.30;96.30;;;;;;4956223;28;20257;-79
2021/08/19 14:15:13;;;;;;;4.37;2.67;;;18.10;96.30;;;;;;4956505;28;20606;-79
2021/08/19 14:17:39;;;;;;;3.33;2.60;;;18.10;96.30;;;;;;4955105;28;20549;-79
2021/08/19 14:20:06;;;;;;;3.80;2.30;;;18.00;96.30;;;;;;4956270;28;20453;-79
2021/08/19 14:22:33;;;;;;;8.17;4.10;;;18.00;96.30;;;;;;4955558;28;20270;-79
2021/08/19 14:24:59;;;;;;;8.03;2.60;;;18.00;96.30;;;;;;4956215;28;20501;-79
2021/08/19 14:27:25;;;;;;;3.70;2.93;;;18.00;96.30;;;;;;4956074;28;20494;-79
2021/08/19 14:29:51;;;;;;;3.70;2.50;;;18.00;96.30;;;;;;4956344;28;20418;-79
2021/08/19 14:32:16;;;;;;;2.47;2.27;;;18.10;96.30;;;;;;4953775;29;20198;-79
2021/08/19 14:34:42;;;;;;;11.77;5.03;;;18.10;96.30;;;;;;4956368;28;20175;-79
2021/08/19 14:37:10;;;;;;;5.83;2.97;;;18.20;96.30;;;;;;4959960;28;20616;-79
2021/08/19 14:39:36;;;;;;;4.10;2.27;;;18.20;96.30;;;;;;4956641;28;20163;-79
2021/08/19 14:42:01;;;;;;;7.00;3.43;;;18.20;96.30;;;;;;4955152;28;20497;-79
2021/08/19 14:44:28;;;;;;;2.53;1.80;;;18.20;96.30;;;;;;4955997;28;20625;-79
2021/08/19 14:46:55;;;;;;;2.20;2.00;;;18.20;96.30;;;;;;4955910;28;20406;-79
2021/08/19 14:49:20;;;;;;;2.30;1.97;;;18.10;96.30;;;;;;4956692;28;20193;-79
2021/08/19 14:51:46;;;;;;;2.87;2.20;;;18.10;96.30;;;;;;4957097;28;21017;-79
2021/08/19 14:54:11;;;;;;;8.17;2.03;;;18.10;96.30;;;;;;4956685;28;20191;-79
2021/08/19 14:56:38;;;;;;;6.63;2.50;;;18.00;96.30;;;;;;4956562;28;20398;-79
2021/08/19 14:59:04;;;;;;;6.83;2.00;;;17.90;96.30;;;;;;4956024;28;20193;-79
2021/08/19 15:01:30;;;;;;;2.13;1.60;;;17.90;96.30;;;;;;4955500;28;20431;-79
2021/08/19 15:03:56;;;;;;;2.20;2.00;;;17.80;96.30;;;;;;4956215;28;20175;-79
2021/08/19 15:06:21;;;;;;;4.63;1.83;;;17.80;96.30;;;;;;4955897;28;20769;-79
2021/08/19 15:08:47;;;;;;;1.77;1.40;;;17.80;96.30;;;;;;4955949;28;20670;-78
2021/08/19 15:11:12;;;;;;;1.70;1.50;;;17.80;96.30;;;;;;4955754;28;20667;-79
2021/08/19 15:13:38;;;;;;;5.90;2.40;;;17.80;96.30;;;;;;4955416;28;20190;-79
2021/08/19 15:16:05;;;;;;;2.77;1.90;;;17.90;96.30;;;;;;4956293;28;20179;-79
2021/08/19 15:18:31;;;;;;;12.53;2.03;;;18.00;96.30;;;;;;4956180;28;20581;-79
2021/08/19 15:21:01;;;;;;;2.13;1.90;;;18.00;96.30;;;;;;4955813;28;20486;-79
2021/08/19 15:23:38;;;;;;;1.90;1.43;;;17.90;96.30;;;;;;4954110;28;20179;-79
2021/08/19 15:26:05;;;;;;;2.00;1.90;;;17.90;96.30;;;;;;4954520;28;20459;-79
2021/08/19 15:28:40;;;;;;;2.20;1.80;;;17.80;96.30;;;;;;4955001;28;20458;-79
2021/08/19 15:31:07;;;;;;;1.80;1.70;;;17.70;96.30;;;;;;4953941;28;20540;-79
2021/08/19 15:33:34;;;;;;;1.87;1.67;;;17.70;96.30;;;;;;4953820;28;20414;-79
2021/08/19 15:36:06;;;;;;;2.40;1.97;;;17.70;96.30;;;;;;4955458;28;20415;-79
2021/08/19 15:38:40;;;;;;;3.17;1.97;;;17.60;96.30;;;;;;4958319;28;20977;-79
2021/08/19 15:41:06;;;;;;;2.80;2.10;;;17.60;96.30;;;;;;4954837;28;20436;-79
2021/08/19 15:43:32;;;;;;;2.73;2.00;;;17.60;96.30;;;;;;4955366;28;20407;-79
2021/08/19 15:45:57;;;;;;;1.70;1.60;;;17.60;96.30;;;;;;4955326;28;20163;-79
2021/08/19 15:48:24;;;;;;;3.13;1.80;;;17.60;96.30;;;;;;4955036;28;20175;-79
2021/08/19 15:50:50;;;;;;;2.03;1.80;;;17.60;96.30;;;;;;4954768;28;20195;-79
2021/08/19 15:53:15;;;;;;;2.40;2.07;;;17.60;96.30;;;;;;4954161;28;20758;-79
2021/08/19 15:55:44;;;;;;;2.00;1.80;;;17.60;96.30;;;;;;4955110;28;20175;-79
2021/08/19 15:58:10;;;;;;;2.97;1.83;;;17.60;96.30;;;;;;4954741;28;20242;-79
2021/08/19 16:00:35;;;;;;;2.40;2.20;;;17.60;96.30;;;;;;4954741;28;20430;-79
2021/08/19 16:03:01;;;;;;;2.97;2.40;;;17.50;96.30;;;;;;4954328;28;20952;-79
2021/08/19 16:05:26;;;;;;;4.53;1.87;;;17.30;96.30;;;;;;4954773;28;20175;-79
2021/08/19 16:07:52;;;;;;;2.37;2.10;;;17.20;96.30;;;;;;4954580;28;20228;-79
2021/08/19 16:10:17;;;;;;;2.93;2.67;;;17.10;96.30;;;;;;4954225;28;20179;-79
2021/08/19 16:12:43;;;;;;;2.50;2.30;;;17.10;96.30;;;;;;4954400;28;20175;-79
2021/08/19 16:15:09;;;;;;;7.33;2.93;;;16.90;96.30;;;;;;4959392;28;20251;-79
2021/08/19 16:17:35;;;;;;;5.27;2.60;;;16.90;96.30;;;;;;4957276;28;20253;-79
2021/08/19 16:20:00;;;;;;;3.27;2.90;;;16.80;96.30;;;;;;4956471;28;20942;-79
2021/08/19 16:22:26;;;;;;;2.80;2.33;;;16.80;96.30;;;;;;4953044;28;20230;-79
2021/08/19 16:24:51;;;;;;;3.20;2.70;;;16.80;96.30;;;;;;4952658;28;20179;-79
2021/08/19 16:27:17;;;;;;;4.57;3.13;;;16.80;96.30;;;;;;4954568;28;20191;-79
2021/08/19 16:29:42;;;;;;;3.53;2.23;;;16.80;96.30;;;;;;4954340;28;20170;-79
2021/08/19 16:43:27;;;;;;;10.87;3.10;;;16.50;96.30;;;;;;4950442;29;20434;-79
2021/08/19 16:46:07;;;;;;;5.63;2.70;;;16.50;96.30;;;;;;4938817;29;20428;-79
2021/08/19 16:48:36;;;;;;;5.57;2.67;;;16.40;96.30;;;;;;4950887;29;20501;-79
2021/08/19 16:51:05;;;;;;;3.50;3.20;;;16.40;96.30;;;;;;4949709;29;20483;-79
2021/08/19 16:53:31;;;;;;;2.70;2.33;;;16.30;96.30;;;;;;4917378;29;20482;-79
2021/08/19 16:55:58;;;;;;;3.60;2.60;;;16.30;96.30;;;;;;4948348;29;20458;-78
2021/08/19 16:58:23;;;;;;;4.70;3.20;;;16.30;96.30;;;;;;4948284;29;20219;-79
2021/08/19 17:00:49;;;;;;;4.00;2.70;;;16.30;96.30;;;;;;4948489;29;20519;-79
2021/08/19 17:03:14;;;;;;;2.80;2.60;;;16.20;96.30;;;;;;4947234;29;20175;-79
2021/08/19 17:05:40;;;;;;;2.63;2.43;;;16.30;96.30;;;;;;4947876;29;20215;-79
2021/08/19 17:08:06;;;;;;;2.73;2.53;;;16.30;96.30;;;;;;4948198;29;20188;-79
2021/08/19 17:10:32;;;;;;;3.63;2.50;;;16.30;96.30;;;;;;4947148;29;20203;-79